sensor_id;sensor_type;location;lat;lon;timestamp;temperature;humidity
21787;DHT22;11055;50.870;4.316;2022-10-17T00:01:09;17.50;99.90
21787;DHT22;11055;50.870;4.316;2022-10-17T00:03:35;17.40;99.90
21787;DHT22;11055;50.870;4.316;2022-10-17T00:06:11;17.40;99.90
21787;DHT22;11055;50.870;4.316;2022-10-17T00:08:38;17.30;99.90
21787;DHT22;11055;50.870;4.316;2022-10-17T00:11:10;17.30;99.90
21787;DHT22;11055;50.870;4.316;2022-10-17T00:13:37;17.20;99.90
21787;DHT22;11055;50.870;4.316;2022-10-17T00:16:03;17.20;99.90
21787;DHT22;11055;50.870;4.316;2022-10-17T00:18:28;17.20;99.90
21787;DHT22;11055;50.870;4.316;2022-10-17T00:20:54;17.20;99.90
21787;DHT22;11055;50.870;4.316;2022-10-17T00:23:19;17.10;99.90
21787;DHT22;11055;50.870;4.316;2022-10-17T00:25:45;17.10;99.90
21787;DHT22;11055;50.870;4.316;2022-10-17T00:28:12;17.10;99.90
21787;DHT22;11055;50.870;4.316;2022-10-17T00:30:38;17.10;99.90
21787;DHT22;11055;50.870;4.316;2022-10-17T00:33:04;17.20;99.90
21787;DHT22;11055;50.870;4.316;2022-10-17T00:35:31;17.20;99.90
21787;DHT22;11055;50.870;4.316;2022-10-17T00:37:56;17.20;99.90
21787;DHT22;11055;50.870;4.316;2022-10-17T00:40:22;17.20;99.90
21787;DHT22;11055;50.870;4.316;2022-10-17T00:42:47;17.20;99.90
21787;DHT22;11055;50.870;4.316;2022-10-17T00:45:20;17.10;99.90
21787;DHT22;11055;50.870;4.316;2022-10-17T00:47:52;17.10;99.90
21787;DHT22;11055;50.870;4.316;2022-10-17T00:50:19;17.10;99.90
21787;DHT22;11055;50.870;4.316;2022-10-17T00:52:46;17.10;99.90
21787;DHT22;11055;50.870;4.316;2022-10-17T00:55:27;17.10;99.90
21787;DHT22;11055;50.870;4.316;2022-10-17T00:57:54;17.20;99.90
21787;DHT22;11055;50.870;4.316;2022-10-17T01:00:21;17.30;99.90
21787;DHT22;11055;50.870;4.316;2022-10-17T01:02:47;17.30;99.90
21787;DHT22;11055;50.870;4.316;2022-10-17T01:05:14;17.40;99.90
21787;DHT22;11055;50.870;4.316;2022-10-17T01:07:41;17.30;99.90
21787;DHT22;11055;50.870;4.316;2022-10-17T01:10:08;17.30;99.90
21787;DHT22;11055;50.870;4.316;2022-10-17T01:15:44;17.40;99.90
21787;DHT22;11055;50.870;4.316;2022-10-17T01:24:54;17.30;99.90
21787;DHT22;11055;50.870;4.316;2022-10-17T01:33:05;17.30;99.90
21787;DHT22;11055;50.870;4.316;2022-10-17T01:35:45;17.30;99.90
21787;DHT22;11055;50.870;4.316;2022-10-17T01:38:26;17.40;99.90
21787;DHT22;11055;50.870;4.316;2022-10-17T01:41:19;17.30;99.90
21787;DHT22;11055;50.870;4.316;2022-10-17T01:44:03;17.40;99.90
21787;DHT22;11055;50.870;4.316;2022-10-17T01:46:36;17.30;99.90
21787;DHT22;11055;50.870;4.316;2022-10-17T01:49:03;17.30;99.90
21787;DHT22;11055;50.870;4.316;2022-10-17T01:51:37;17.30;99.90
21787;DHT22;11055;50.870;4.316;2022-10-17T01:56:47;17.30;99.90
21787;DHT22;11055;50.870;4.316;2022-10-17T01:59:19;17.30;99.90
21787;DHT22;11055;50.870;4.316;2022-10-17T02:01:49;17.30;99.90
21787;DHT22;11055;50.870;4.316;2022-10-17T02:04:16;17.30;99.90
21787;DHT22;11055;50.870;4.316;2022-10-17T02:06:42;17.40;99.90
21787;DHT22;11055;50.870;4.316;2022-10-17T02:09:25;17.40;99.90
21787;DHT22;11055;50.870;4.316;2022-10-17T02:14:53;17.50;99.90
21787;DHT22;11055;50.870;4.316;2022-10-17T02:17:34;17.50;99.90
21787;DHT22;11055;50.870;4.316;2022-10-17T02:22:55;17.50;99.90
21787;DHT22;11055;50.870;4.316;2022-10-17T02:28:00;17.50;99.90
21787;DHT22;11055;50.870;4.316;2022-10-17T02:33:05;17.60;99.90
21787;DHT22;11055;50.870;4.316;2022-10-17T02:35:35;17.60;99.90
21787;DHT22;11055;50.870;4.316;2022-10-17T02:38:04;17.70;99.90
21787;DHT22;11055;50.870;4.316;2022-10-17T02:40:31;17.60;99.90
21787;DHT22;11055;50.870;4.316;2022-10-17T02:42:58;17.60;99.90
21787;DHT22;11055;50.870;4.316;2022-10-17T02:45:27;17.60;99.90
21787;DHT22;11055;50.870;4.316;2022-10-17T02:50:56;17.50;99.90
21787;DHT22;11055;50.870;4.316;2022-10-17T02:56:17;17.50;99.90
21787;DHT22;11055;50.870;4.316;2022-10-17T02:58:46;17.50;99.90
21787;DHT22;11055;50.870;4.316;2022-10-17T03:01:13;17.60;99.90
21787;DHT22;11055;50.870;4.316;2022-10-17T03:03:39;17.60;99.90
21787;DHT22;11055;50.870;4.316;2022-10-17T03:06:04;17.70;99.90
21787;DHT22;11055;50.870;4.316;2022-10-17T03:08:30;17.70;99.90
21787;DHT22;11055;50.870;4.316;2022-10-17T03:10:56;17.80;99.90
21787;DHT22;11055;50.870;4.316;2022-10-17T03:13:21;17.80;99.90
21787;DHT22;11055;50.870;4.316;2022-10-17T03:15:47;17.80;99.90
21787;DHT22;11055;50.870;4.316;2022-10-17T03:18:13;17.80;99.90
21787;DHT22;11055;50.870;4.316;2022-10-17T03:20:38;17.80;99.90
21787;DHT22;11055;50.870;4.316;2022-10-17T03:23:04;17.80;99.90
21787;DHT22;11055;50.870;4.316;2022-10-17T03:25:30;17.80;99.90
21787;DHT22;11055;50.870;4.316;2022-10-17T03:27:58;17.80;99.90
21787;DHT22;11055;50.870;4.316;2022-10-17T03:30:24;17.80;99.90
21787;DHT22;11055;50.870;4.316;2022-10-17T03:32:50;17.90;99.90
21787;DHT22;11055;50.870;4.316;2022-10-17T03:35:16;17.90;99.90
21787;DHT22;11055;50.870;4.316;2022-10-17T03:37:41;17.90;99.90
21787;DHT22;11055;50.870;4.316;2022-10-17T03:40:07;17.90;99.90
21787;DHT22;11055;50.870;4.316;2022-10-17T03:42:33;17.80;99.90
21787;DHT22;11055;50.870;4.316;2022-10-17T03:44:58;17.80;99.90
21787;DHT22;11055;50.870;4.316;2022-10-17T03:47:24;17.80;99.90
21787;DHT22;11055;50.870;4.316;2022-10-17T03:49:50;17.70;99.90
21787;DHT22;11055;50.870;4.316;2022-10-17T03:52:17;17.80;99.90
21787;DHT22;11055;50.870;4.316;2022-10-17T03:54:43;17.80;99.90
21787;DHT22;11055;50.870;4.316;2022-10-17T03:57:09;17.90;99.90
21787;DHT22;11055;50.870;4.316;2022-10-17T03:59:34;17.90;99.90
21787;DHT22;11055;50.870;4.316;2022-10-17T04:02:00;17.90;99.90
21787;DHT22;11055;50.870;4.316;2022-10-17T04:04:25;17.90;99.90
21787;DHT22;11055;50.870;4.316;2022-10-17T04:06:51;17.90;99.90
21787;DHT22;11055;50.870;4.316;2022-10-17T04:09:17;18.00;99.90
21787;DHT22;11055;50.870;4.316;2022-10-17T04:11:42;18.00;99.90
21787;DHT22;11055;50.870;4.316;2022-10-17T04:14:08;18.00;99.90
21787;DHT22;11055;50.870;4.316;2022-10-17T04:16:34;18.00;99.90
21787;DHT22;11055;50.870;4.316;2022-10-17T04:19:00;18.00;99.90
21787;DHT22;11055;50.870;4.316;2022-10-17T04:21:27;18.00;99.90
21787;DHT22;11055;50.870;4.316;2022-10-17T04:23:58;18.00;99.90
21787;DHT22;11055;50.870;4.316;2022-10-17T04:26:24;18.10;99.90
21787;DHT22;11055;50.870;4.316;2022-10-17T04:28:50;18.00;99.90
21787;DHT22;11055;50.870;4.316;2022-10-17T04:31:16;18.10;99.90
21787;DHT22;11055;50.870;4.316;2022-10-17T04:33:45;18.20;99.90
21787;DHT22;11055;50.870;4.316;2022-10-17T04:36:13;18.20;99.90
21787;DHT22;11055;50.870;4.316;2022-10-17T04:38:39;18.10;99.90
21787;DHT22;11055;50.870;4.316;2022-10-17T04:41:06;18.10;99.90
21787;DHT22;11055;50.870;4.316;2022-10-17T04:43:34;18.10;99.90
21787;DHT22;11055;50.870;4.316;2022-10-17T04:46:01;18.10;99.90
21787;DHT22;11055;50.870;4.316;2022-10-17T04:48:28;18.10;99.90
21787;DHT22;11055;50.870;4.316;2022-10-17T04:50:56;18.10;99.90
21787;DHT22;11055;50.870;4.316;2022-10-17T04:53:23;18.00;99.90
21787;DHT22;11055;50.870;4.316;2022-10-17T04:55:48;18.00;99.90
21787;DHT22;11055;50.870;4.316;2022-10-17T04:58:14;17.90;99.90
21787;DHT22;11055;50.870;4.316;2022-10-17T05:00:40;17.90;99.90
21787;DHT22;11055;50.870;4.316;2022-10-17T05:03:06;17.90;99.90
21787;DHT22;11055;50.870;4.316;2022-10-17T05:05:31;17.90;99.90
21787;DHT22;11055;50.870;4.316;2022-10-17T05:07:57;17.90;99.90
21787;DHT22;11055;50.870;4.316;2022-10-17T05:10:23;17.90;99.90
21787;DHT22;11055;50.870;4.316;2022-10-17T05:12:49;17.90;99.90
21787;DHT22;11055;50.870;4.316;2022-10-17T05:15:15;17.90;99.90
21787;DHT22;11055;50.870;4.316;2022-10-17T05:17:40;18.00;99.90
21787;DHT22;11055;50.870;4.316;2022-10-17T05:20:07;18.00;99.90
21787;DHT22;11055;50.870;4.316;2022-10-17T05:22:33;18.00;99.90
21787;DHT22;11055;50.870;4.316;2022-10-17T05:24:58;18.10;99.90
21787;DHT22;11055;50.870;4.316;2022-10-17T05:27:24;18.10;99.90
21787;DHT22;11055;50.870;4.316;2022-10-17T05:29:50;18.10;99.90
21787;DHT22;11055;50.870;4.316;2022-10-17T05:32:17;18.10;99.90
21787;DHT22;11055;50.870;4.316;2022-10-17T05:34:43;18.20;99.90
21787;DHT22;11055;50.870;4.316;2022-10-17T05:37:09;18.20;99.90
21787;DHT22;11055;50.870;4.316;2022-10-17T05:39:34;18.10;99.90
21787;DHT22;11055;50.870;4.316;2022-10-17T05:42:00;18.10;99.90
21787;DHT22;11055;50.870;4.316;2022-10-17T05:44:25;18.10;99.90
21787;DHT22;11055;50.870;4.316;2022-10-17T05:46:51;18.00;99.90
21787;DHT22;11055;50.870;4.316;2022-10-17T05:49:17;18.00;99.90
21787;DHT22;11055;50.870;4.316;2022-10-17T05:51:43;17.90;99.90
21787;DHT22;11055;50.870;4.316;2022-10-17T05:54:08;17.90;99.90
21787;DHT22;11055;50.870;4.316;2022-10-17T05:56:34;17.90;99.90
21787;DHT22;11055;50.870;4.316;2022-10-17T05:59:00;17.90;99.90
21787;DHT22;11055;50.870;4.316;2022-10-17T06:01:26;17.90;99.90
21787;DHT22;11055;50.870;4.316;2022-10-17T06:03:52;18.00;99.90
21787;DHT22;11055;50.870;4.316;2022-10-17T06:06:19;18.00;99.90
21787;DHT22;11055;50.870;4.316;2022-10-17T06:08:45;18.10;99.90
21787;DHT22;11055;50.870;4.316;2022-10-17T06:11:11;18.10;99.90
21787;DHT22;11055;50.870;4.316;2022-10-17T06:13:38;18.20;99.90
21787;DHT22;11055;50.870;4.316;2022-10-17T06:16:04;18.20;99.90
21787;DHT22;11055;50.870;4.316;2022-10-17T06:18:30;18.30;99.90
21787;DHT22;11055;50.870;4.316;2022-10-17T06:21:04;18.30;99.90
21787;DHT22;11055;50.870;4.316;2022-10-17T06:23:30;18.30;99.90
21787;DHT22;11055;50.870;4.316;2022-10-17T06:26:00;18.40;99.90
21787;DHT22;11055;50.870;4.316;2022-10-17T06:28:26;18.30;99.90
21787;DHT22;11055;50.870;4.316;2022-10-17T06:30:52;18.30;99.90
21787;DHT22;11055;50.870;4.316;2022-10-17T06:33:17;18.30;99.90
21787;DHT22;11055;50.870;4.316;2022-10-17T06:35:50;18.20;99.90
21787;DHT22;11055;50.870;4.316;2022-10-17T06:38:16;18.20;99.90
21787;DHT22;11055;50.870;4.316;2022-10-17T06:40:41;18.10;99.90
21787;DHT22;11055;50.870;4.316;2022-10-17T06:43:07;18.00;99.90
21787;DHT22;11055;50.870;4.316;2022-10-17T06:45:33;18.00;99.90
21787;DHT22;11055;50.870;4.316;2022-10-17T06:47:58;18.00;99.90
21787;DHT22;11055;50.870;4.316;2022-10-17T06:50:24;18.00;99.90
21787;DHT22;11055;50.870;4.316;2022-10-17T06:52:50;18.10;99.90
21787;DHT22;11055;50.870;4.316;2022-10-17T06:55:16;18.10;99.90
21787;DHT22;11055;50.870;4.316;2022-10-17T06:57:42;18.00;99.90
21787;DHT22;11055;50.870;4.316;2022-10-17T07:00:08;17.90;99.90
21787;DHT22;11055;50.870;4.316;2022-10-17T07:02:33;18.00;99.90
21787;DHT22;11055;50.870;4.316;2022-10-17T07:04:59;18.00;99.90
21787;DHT22;11055;50.870;4.316;2022-10-17T07:07:24;18.00;99.90
21787;DHT22;11055;50.870;4.316;2022-10-17T07:09:50;18.00;99.90
21787;DHT22;11055;50.870;4.316;2022-10-17T07:12:16;18.00;99.90
21787;DHT22;11055;50.870;4.316;2022-10-17T07:14:42;18.00;99.90
21787;DHT22;11055;50.870;4.316;2022-10-17T07:17:07;17.80;99.90
21787;DHT22;11055;50.870;4.316;2022-10-17T07:19:34;17.70;99.90
21787;DHT22;11055;50.870;4.316;2022-10-17T07:22:00;17.70;99.90
21787;DHT22;11055;50.870;4.316;2022-10-17T07:24:26;17.70;99.90
21787;DHT22;11055;50.870;4.316;2022-10-17T07:26:51;17.80;99.90
21787;DHT22;11055;50.870;4.316;2022-10-17T07:29:17;17.70;99.90
21787;DHT22;11055;50.870;4.316;2022-10-17T07:31:43;17.70;99.90
21787;DHT22;11055;50.870;4.316;2022-10-17T07:34:10;17.60;99.90
21787;DHT22;11055;50.870;4.316;2022-10-17T07:36:35;17.60;99.90
21787;DHT22;11055;50.870;4.316;2022-10-17T07:39:01;17.50;99.90
21787;DHT22;11055;50.870;4.316;2022-10-17T07:41:26;17.30;99.90
21787;DHT22;11055;50.870;4.316;2022-10-17T07:43:52;17.20;99.90
21787;DHT22;11055;50.870;4.316;2022-10-17T07:46:18;17.10;99.90
21787;DHT22;11055;50.870;4.316;2022-10-17T07:48:43;17.10;99.90
21787;DHT22;11055;50.870;4.316;2022-10-17T07:51:09;17.10;99.90
21787;DHT22;11055;50.870;4.316;2022-10-17T07:53:36;17.10;99.90
21787;DHT22;11055;50.870;4.316;2022-10-17T07:56:04;17.10;99.90
21787;DHT22;11055;50.870;4.316;2022-10-17T07:58:30;17.20;99.90
21787;DHT22;11055;50.870;4.316;2022-10-17T08:01:03;17.30;99.90
21787;DHT22;11055;50.870;4.316;2022-10-17T08:03:29;17.50;99.90
21787;DHT22;11055;50.870;4.316;2022-10-17T08:05:59;17.60;99.90
21787;DHT22;11055;50.870;4.316;2022-10-17T08:08:26;17.70;99.90
21787;DHT22;11055;50.870;4.316;2022-10-17T08:10:53;17.70;99.90
21787;DHT22;11055;50.870;4.316;2022-10-17T08:13:21;17.60;99.90
21787;DHT22;11055;50.870;4.316;2022-10-17T08:15:47;17.60;99.90
21787;DHT22;11055;50.870;4.316;2022-10-17T08:18:13;17.60;99.90
21787;DHT22;11055;50.870;4.316;2022-10-17T08:20:40;17.60;99.90
21787;DHT22;11055;50.870;4.316;2022-10-17T08:23:06;17.70;99.90
21787;DHT22;11055;50.870;4.316;2022-10-17T08:25:32;17.90;99.90
21787;DHT22;11055;50.870;4.316;2022-10-17T08:27:57;17.90;99.90
21787;DHT22;11055;50.870;4.316;2022-10-17T08:30:23;18.00;99.90
21787;DHT22;11055;50.870;4.316;2022-10-17T08:32:49;18.00;99.90
21787;DHT22;11055;50.870;4.316;2022-10-17T08:35:14;18.00;99.90
21787;DHT22;11055;50.870;4.316;2022-10-17T08:37:40;17.90;99.90
21787;DHT22;11055;50.870;4.316;2022-10-17T08:40:09;18.00;99.90
21787;DHT22;11055;50.870;4.316;2022-10-17T08:43:00;18.10;99.90
21787;DHT22;11055;50.870;4.316;2022-10-17T08:45:42;18.10;99.90
21787;DHT22;11055;50.870;4.316;2022-10-17T08:48:13;18.10;99.90
21787;DHT22;11055;50.870;4.316;2022-10-17T08:51:02;18.30;99.90
21787;DHT22;11055;50.870;4.316;2022-10-17T08:56:18;18.30;99.90
21787;DHT22;11055;50.870;4.316;2022-10-17T08:58:45;18.40;99.90
21787;DHT22;11055;50.870;4.316;2022-10-17T09:01:37;18.60;99.90
21787;DHT22;11055;50.870;4.316;2022-10-17T09:04:37;18.60;99.90
21787;DHT22;11055;50.870;4.316;2022-10-17T09:12:37;18.40;99.90
21787;DHT22;11055;50.870;4.316;2022-10-17T09:15:33;18.30;99.90
21787;DHT22;11055;50.870;4.316;2022-10-17T09:18:16;18.30;99.90
21787;DHT22;11055;50.870;4.316;2022-10-17T09:20:51;18.40;99.90
21787;DHT22;11055;50.870;4.316;2022-10-17T09:23:31;18.50;99.90
21787;DHT22;11055;50.870;4.316;2022-10-17T09:25:59;18.50;99.90
21787;DHT22;11055;50.870;4.316;2022-10-17T09:28:34;18.50;99.90
21787;DHT22;11055;50.870;4.316;2022-10-17T09:31:29;18.50;99.90
21787;DHT22;11055;50.870;4.316;2022-10-17T09:34:00;18.50;99.90
21787;DHT22;11055;50.870;4.316;2022-10-17T09:36:35;18.40;99.90
21787;DHT22;11055;50.870;4.316;2022-10-17T09:39:04;18.40;99.90
21787;DHT22;11055;50.870;4.316;2022-10-17T09:41:35;18.40;99.90
21787;DHT22;11055;50.870;4.316;2022-10-17T09:44:22;18.40;99.90
21787;DHT22;11055;50.870;4.316;2022-10-17T09:47:00;18.50;99.90
21787;DHT22;11055;50.870;4.316;2022-10-17T09:49:46;18.40;99.90
21787;DHT22;11055;50.870;4.316;2022-10-17T09:54:52;18.20;99.90
21787;DHT22;11055;50.870;4.316;2022-10-17T09:57:20;18.20;99.90
21787;DHT22;11055;50.870;4.316;2022-10-17T09:59:58;18.20;99.90
21787;DHT22;11055;50.870;4.316;2022-10-17T10:02:26;18.00;99.90
21787;DHT22;11055;50.870;4.316;2022-10-17T10:05:01;17.90;99.90
21787;DHT22;11055;50.870;4.316;2022-10-17T10:07:30;17.90;99.90
21787;DHT22;11055;50.870;4.316;2022-10-17T10:09:57;17.90;99.90
21787;DHT22;11055;50.870;4.316;2022-10-17T10:12:31;17.90;99.90
21787;DHT22;11055;50.870;4.316;2022-10-17T10:14:58;17.90;99.90
21787;DHT22;11055;50.870;4.316;2022-10-17T10:17:39;18.00;99.90
21787;DHT22;11055;50.870;4.316;2022-10-17T10:23:26;18.10;99.90
21787;DHT22;11055;50.870;4.316;2022-10-17T10:26:03;18.20;99.90
21787;DHT22;11055;50.870;4.316;2022-10-17T10:28:32;18.30;99.90
21787;DHT22;11055;50.870;4.316;2022-10-17T10:31:06;18.40;99.90
21787;DHT22;11055;50.870;4.316;2022-10-17T10:33:34;18.40;99.90
21787;DHT22;11055;50.870;4.316;2022-10-17T10:36:03;18.40;99.90
21787;DHT22;11055;50.870;4.316;2022-10-17T10:38:31;18.20;99.90
21787;DHT22;11055;50.870;4.316;2022-10-17T10:46:26;18.40;99.90
21787;DHT22;11055;50.870;4.316;2022-10-17T10:48:58;18.50;99.90
21787;DHT22;11055;50.870;4.316;2022-10-17T10:56:37;18.40;99.90
21787;DHT22;11055;50.870;4.316;2022-10-17T10:59:20;18.30;99.90
21787;DHT22;11055;50.870;4.316;2022-10-17T11:04:55;18.20;99.90
21787;DHT22;11055;50.870;4.316;2022-10-17T11:13:19;18.30;99.90
21787;DHT22;11055;50.870;4.316;2022-10-17T11:16:14;18.30;99.90
21787;DHT22;11055;50.870;4.316;2022-10-17T11:21:29;18.00;99.90
21787;DHT22;11055;50.870;4.316;2022-10-17T11:24:01;17.90;99.90
21787;DHT22;11055;50.870;4.316;2022-10-17T11:26:30;17.90;99.90
21787;DHT22;11055;50.870;4.316;2022-10-17T11:28:58;17.80;99.90
21787;DHT22;11055;50.870;4.316;2022-10-17T11:31:38;17.80;99.90
21787;DHT22;11055;50.870;4.316;2022-10-17T11:34:24;17.70;99.90
21787;DHT22;11055;50.870;4.316;2022-10-17T11:36:57;17.70;99.90
21787;DHT22;11055;50.870;4.316;2022-10-17T11:42:40;17.60;99.90
21787;DHT22;11055;50.870;4.316;2022-10-17T11:45:11;17.60;99.90
21787;DHT22;11055;50.870;4.316;2022-10-17T11:47:47;17.70;99.90
21787;DHT22;11055;50.870;4.316;2022-10-17T11:50:25;17.80;99.90
21787;DHT22;11055;50.870;4.316;2022-10-17T11:53:13;17.70;99.90
21787;DHT22;11055;50.870;4.316;2022-10-17T11:55:40;17.80;99.90
21787;DHT22;11055;50.870;4.316;2022-10-17T12:03:46;18.10;99.90
21787;DHT22;11055;50.870;4.316;2022-10-17T12:09:10;18.00;99.90
21787;DHT22;11055;50.870;4.316;2022-10-17T12:17:03;18.30;99.90
21787;DHT22;11055;50.870;4.316;2022-10-17T12:19:36;18.40;99.90
21787;DHT22;11055;50.870;4.316;2022-10-17T12:24:43;18.30;99.90
21787;DHT22;11055;50.870;4.316;2022-10-17T12:30:17;18.20;99.90
21787;DHT22;11055;50.870;4.316;2022-10-17T12:32:53;18.00;99.90
21787;DHT22;11055;50.870;4.316;2022-10-17T12:35:21;17.90;99.90
21787;DHT22;11055;50.870;4.316;2022-10-17T12:45:52;18.00;99.90
21787;DHT22;11055;50.870;4.316;2022-10-17T12:51:18;18.10;99.90
21787;DHT22;11055;50.870;4.316;2022-10-17T12:56:20;18.20;99.90
21787;DHT22;11055;50.870;4.316;2022-10-17T12:58:48;18.40;99.90
21787;DHT22;11055;50.870;4.316;2022-10-17T13:01:25;18.50;99.90
21787;DHT22;11055;50.870;4.316;2022-10-17T13:03:52;18.60;99.90
21787;DHT22;11055;50.870;4.316;2022-10-17T13:06:21;18.50;99.90
21787;DHT22;11055;50.870;4.316;2022-10-17T13:09:02;18.50;99.90
21787;DHT22;11055;50.870;4.316;2022-10-17T13:11:31;18.50;99.90
21787;DHT22;11055;50.870;4.316;2022-10-17T13:13:59;18.50;99.90
21787;DHT22;11055;50.870;4.316;2022-10-17T13:16:37;18.40;99.90
21787;DHT22;11055;50.870;4.316;2022-10-17T13:19:15;18.50;99.90
21787;DHT22;11055;50.870;4.316;2022-10-17T13:21:59;18.60;99.90
21787;DHT22;11055;50.870;4.316;2022-10-17T13:24:39;18.80;99.90
21787;DHT22;11055;50.870;4.316;2022-10-17T13:27:31;18.70;99.90
21787;DHT22;11055;50.870;4.316;2022-10-17T13:30:00;18.70;99.90
21787;DHT22;11055;50.870;4.316;2022-10-17T13:32:36;18.80;99.90
21787;DHT22;11055;50.870;4.316;2022-10-17T13:35:12;18.80;99.90
21787;DHT22;11055;50.870;4.316;2022-10-17T13:37:40;18.80;99.90
21787;DHT22;11055;50.870;4.316;2022-10-17T13:40:11;18.80;99.90
21787;DHT22;11055;50.870;4.316;2022-10-17T13:42:39;18.80;99.90
21787;DHT22;11055;50.870;4.316;2022-10-17T13:45:27;18.90;99.90
21787;DHT22;11055;50.870;4.316;2022-10-17T13:47:54;18.80;99.90
21787;DHT22;11055;50.870;4.316;2022-10-17T13:50:32;18.70;99.90
21787;DHT22;11055;50.870;4.316;2022-10-17T13:53:36;18.80;99.90
21787;DHT22;11055;50.870;4.316;2022-10-17T13:56:24;19.00;99.90
21787;DHT22;11055;50.870;4.316;2022-10-17T13:59:02;18.80;99.90
21787;DHT22;11055;50.870;4.316;2022-10-17T14:01:32;18.70;99.90
21787;DHT22;11055;50.870;4.316;2022-10-17T14:03:58;18.70;99.90
21787;DHT22;11055;50.870;4.316;2022-10-17T14:06:28;18.60;99.90
21787;DHT22;11055;50.870;4.316;2022-10-17T14:09:01;18.60;99.90
21787;DHT22;11055;50.870;4.316;2022-10-17T14:11:41;18.60;99.90
21787;DHT22;11055;50.870;4.316;2022-10-17T14:14:19;18.70;99.90
21787;DHT22;11055;50.870;4.316;2022-10-17T14:16:46;18.90;99.90
21787;DHT22;11055;50.870;4.316;2022-10-17T14:19:27;18.90;99.90
21787;DHT22;11055;50.870;4.316;2022-10-17T14:21:55;18.80;99.90
21787;DHT22;11055;50.870;4.316;2022-10-17T14:26:55;18.70;99.90
21787;DHT22;11055;50.870;4.316;2022-10-17T14:29:29;18.70;99.90
21787;DHT22;11055;50.870;4.316;2022-10-17T14:32:06;18.80;99.90
21787;DHT22;11055;50.870;4.316;2022-10-17T14:34:37;18.70;99.90
21787;DHT22;11055;50.870;4.316;2022-10-17T14:40:02;18.70;99.90
21787;DHT22;11055;50.870;4.316;2022-10-17T14:42:28;18.70;99.90
21787;DHT22;11055;50.870;4.316;2022-10-17T14:45:02;18.70;99.90
21787;DHT22;11055;50.870;4.316;2022-10-17T14:47:28;18.60;99.90
21787;DHT22;11055;50.870;4.316;2022-10-17T14:50:26;18.70;99.90
21787;DHT22;11055;50.870;4.316;2022-10-17T14:53:04;18.70;99.90
21787;DHT22;11055;50.870;4.316;2022-10-17T14:55:33;18.80;99.90
21787;DHT22;11055;50.870;4.316;2022-10-17T14:57:59;18.80;99.90
21787;DHT22;11055;50.870;4.316;2022-10-17T15:00:26;18.80;99.90
21787;DHT22;11055;50.870;4.316;2022-10-17T15:02:53;18.80;99.90
21787;DHT22;11055;50.870;4.316;2022-10-17T15:05:20;18.90;99.90
21787;DHT22;11055;50.870;4.316;2022-10-17T15:07:48;18.90;99.90
21787;DHT22;11055;50.870;4.316;2022-10-17T15:10:35;19.00;99.90
21787;DHT22;11055;50.870;4.316;2022-10-17T15:13:02;19.20;99.90
21787;DHT22;11055;50.870;4.316;2022-10-17T15:15:29;19.30;99.90
21787;DHT22;11055;50.870;4.316;2022-10-17T15:17:55;19.30;99.90
21787;DHT22;11055;50.870;4.316;2022-10-17T15:20:21;19.30;99.90
21787;DHT22;11055;50.870;4.316;2022-10-17T15:22:51;19.20;99.90
21787;DHT22;11055;50.870;4.316;2022-10-17T15:25:17;19.10;99.90
21787;DHT22;11055;50.870;4.316;2022-10-17T15:27:43;19.20;99.90
21787;DHT22;11055;50.870;4.316;2022-10-17T15:30:30;19.00;99.90
21787;DHT22;11055;50.870;4.316;2022-10-17T15:32:57;18.90;99.90
21787;DHT22;11055;50.870;4.316;2022-10-17T15:35:23;19.00;99.90
21787;DHT22;11055;50.870;4.316;2022-10-17T15:37:49;19.00;99.90
21787;DHT22;11055;50.870;4.316;2022-10-17T15:40:22;19.10;99.90
21787;DHT22;11055;50.870;4.316;2022-10-17T15:42:48;19.20;99.90
21787;DHT22;11055;50.870;4.316;2022-10-17T15:45:16;19.30;99.90
21787;DHT22;11055;50.870;4.316;2022-10-17T15:47:43;19.30;99.90
21787;DHT22;11055;50.870;4.316;2022-10-17T15:50:14;19.20;99.90
21787;DHT22;11055;50.870;4.316;2022-10-17T15:52:40;19.20;99.90
21787;DHT22;11055;50.870;4.316;2022-10-17T15:55:10;19.30;99.90
21787;DHT22;11055;50.870;4.316;2022-10-17T15:57:40;19.30;99.90
21787;DHT22;11055;50.870;4.316;2022-10-17T16:00:13;19.40;99.90
21787;DHT22;11055;50.870;4.316;2022-10-17T16:02:41;19.50;99.90
21787;DHT22;11055;50.870;4.316;2022-10-17T16:05:17;19.30;99.90
21787;DHT22;11055;50.870;4.316;2022-10-17T16:07:44;19.10;99.90
21787;DHT22;11055;50.870;4.316;2022-10-17T16:10:12;19.00;99.90
21787;DHT22;11055;50.870;4.316;2022-10-17T16:12:38;18.90;99.90
21787;DHT22;11055;50.870;4.316;2022-10-17T16:15:28;18.90;99.90
21787;DHT22;11055;50.870;4.316;2022-10-17T16:17:54;19.10;99.90
21787;DHT22;11055;50.870;4.316;2022-10-17T16:20:21;19.10;99.90
21787;DHT22;11055;50.870;4.316;2022-10-17T16:22:47;19.20;99.90
21787;DHT22;11055;50.870;4.316;2022-10-17T16:25:23;19.20;99.90
21787;DHT22;11055;50.870;4.316;2022-10-17T16:27:51;19.30;99.90
21787;DHT22;11055;50.870;4.316;2022-10-17T16:30:18;19.30;99.90
21787;DHT22;11055;50.870;4.316;2022-10-17T16:32:44;19.40;99.90
21787;DHT22;11055;50.870;4.316;2022-10-17T16:35:15;19.30;99.90
21787;DHT22;11055;50.870;4.316;2022-10-17T16:37:41;19.40;99.90
21787;DHT22;11055;50.870;4.316;2022-10-17T16:40:07;19.30;99.90
21787;DHT22;11055;50.870;4.316;2022-10-17T16:42:32;19.30;99.90
21787;DHT22;11055;50.870;4.316;2022-10-17T16:44:58;19.30;99.90
21787;DHT22;11055;50.870;4.316;2022-10-17T16:47:24;19.30;99.90
21787;DHT22;11055;50.870;4.316;2022-10-17T16:49:49;19.30;99.90
21787;DHT22;11055;50.870;4.316;2022-10-17T16:52:15;19.50;99.90
21787;DHT22;11055;50.870;4.316;2022-10-17T16:54:40;19.40;99.90
21787;DHT22;11055;50.870;4.316;2022-10-17T16:57:06;19.20;99.90
21787;DHT22;11055;50.870;4.316;2022-10-17T16:59:32;19.20;99.90
21787;DHT22;11055;50.870;4.316;2022-10-17T17:01:57;19.30;99.90
21787;DHT22;11055;50.870;4.316;2022-10-17T17:04:23;19.20;99.90
21787;DHT22;11055;50.870;4.316;2022-10-17T17:06:49;19.30;99.90
21787;DHT22;11055;50.870;4.316;2022-10-17T17:09:14;19.30;99.90
21787;DHT22;11055;50.870;4.316;2022-10-17T17:11:40;19.40;99.90
21787;DHT22;11055;50.870;4.316;2022-10-17T17:14:06;19.40;99.90
21787;DHT22;11055;50.870;4.316;2022-10-17T17:16:33;19.40;99.90
21787;DHT22;11055;50.870;4.316;2022-10-17T17:19:04;19.50;99.90
21787;DHT22;11055;50.870;4.316;2022-10-17T17:21:31;19.50;99.90
21787;DHT22;11055;50.870;4.316;2022-10-17T17:23:59;19.50;99.90
21787;DHT22;11055;50.870;4.316;2022-10-17T17:26:27;19.50;99.90
21787;DHT22;11055;50.870;4.316;2022-10-17T17:28:53;19.50;99.90
21787;DHT22;11055;50.870;4.316;2022-10-17T17:31:24;19.40;99.90
21787;DHT22;11055;50.870;4.316;2022-10-17T17:33:51;19.40;99.90
21787;DHT22;11055;50.870;4.316;2022-10-17T17:36:23;19.30;99.90
21787;DHT22;11055;50.870;4.316;2022-10-17T17:38:49;19.20;99.90